DAL2157 KATL-KCLT
Flight info
| Callsign | DAL2157 |
|---|---|
| Flight time | 0h 34m |
| Altitude | 23000 |
| Route | PHIIL3 PHIIL CNTLR JONZE5 |
| Aircraft | A321/M-SDE3FGHIRWY/LB1 |
Departure
| Time | 2026-05-08 00:45 |
|---|---|
| Airport | Hartsfield Jackson Atlanta International Airport (KATL) |
Arrival
| Time | 2026-05-08 01:19 |
|---|---|
| Airport | Charlotte Douglas International Airport (KCLT) |
| Time | Latitude | Longitude | Altitude | Speed | Heading |
|---|---|---|---|---|---|
| 2026-05-08 00:31 | 33.63828 | -84.43201 | 1007 ft | 0 kts | 275° |
| 2026-05-08 00:37 | 33.63828 | -84.43196 | 1006 ft | 3 kts | 275° |
| 2026-05-08 00:37 | 33.63826 | -84.43175 | 1006 ft | 3 kts | 275° |
| 2026-05-08 00:37 | 33.63829 | -84.43153 | 1006 ft | 3 kts | 250° |
| 2026-05-08 00:38 | 33.63834 | -84.43142 | 1006 ft | 0 kts | 215° |
| 2026-05-08 00:39 | 33.63816 | -84.43140 | 1006 ft | 6 kts | 166° |
| 2026-05-08 00:39 | 33.63770 | -84.43131 | 1006 ft | 7 kts | 176° |
| 2026-05-08 00:39 | 33.63714 | -84.43129 | 1006 ft | 12 kts | 178° |
| 2026-05-08 00:40 | 33.63663 | -84.43015 | 1006 ft | 21 kts | 87° |
| 2026-05-08 00:40 | 33.63664 | -84.42835 | 1006 ft | 25 kts | 90° |
| 2026-05-08 00:40 | 33.63655 | -84.42600 | 1007 ft | 32 kts | 91° |
| 2026-05-08 00:40 | 33.63655 | -84.42308 | 1007 ft | 38 kts | 90° |
| 2026-05-08 00:41 | 33.63655 | -84.41970 | 1006 ft | 41 kts | 90° |
| 2026-05-08 00:41 | 33.63654 | -84.41623 | 1006 ft | 45 kts | 90° |
| 2026-05-08 00:41 | 33.63655 | -84.41257 | 1006 ft | 32 kts | 91° |
| 2026-05-08 00:41 | 33.63655 | -84.40992 | 1006 ft | 21 kts | 90° |
| 2026-05-08 00:42 | 33.63622 | -84.40910 | 1006 ft | 12 kts | 166° |
| 2026-05-08 00:42 | 33.63551 | -84.40907 | 1007 ft | 9 kts | 179° |
| 2026-05-08 00:42 | 33.63474 | -84.40925 | 1007 ft | 13 kts | 238° |
| 2026-05-08 00:42 | 33.63471 | -84.40954 | 1007 ft | 0 kts | 270° |
| 2026-05-08 00:43 | 33.63471 | -84.40956 | 1007 ft | 2 kts | 270° |
| 2026-05-08 00:43 | 33.63471 | -84.40967 | 1007 ft | 0 kts | 270° |
| 2026-05-08 00:44 | 33.63471 | -84.40978 | 1007 ft | 7 kts | 270° |
| 2026-05-08 00:44 | 33.63471 | -84.41270 | 1006 ft | 69 kts | 270° |
| 2026-05-08 00:44 | 33.63471 | -84.42092 | 1007 ft | 126 kts | 270° |
| 2026-05-08 00:45 | 33.63471 | -84.43328 | 1008 ft | 169 kts | 270° |
| 2026-05-08 00:45 | 33.63480 | -84.44801 | 1419 ft | 175 kts | 273° |
| 2026-05-08 00:45 | 33.63471 | -84.46260 | 2076 ft | 175 kts | 272° |
| 2026-05-08 00:45 | 33.63352 | -84.47698 | 2696 ft | 181 kts | 256° |
| 2026-05-08 00:46 | 33.62771 | -84.49111 | 3074 ft | 195 kts | 246° |
| 2026-05-08 00:46 | 33.62120 | -84.50615 | 3300 ft | 211 kts | 246° |
| 2026-05-08 00:46 | 33.61433 | -84.52244 | 3565 ft | 227 kts | 247° |
| 2026-05-08 00:46 | 33.60693 | -84.54011 | 3820 ft | 249 kts | 246° |
| 2026-05-08 00:47 | 33.59899 | -84.55906 | 4462 ft | 257 kts | 246° |
| 2026-05-08 00:47 | 33.58864 | -84.57665 | 5216 ft | 265 kts | 222° |
| 2026-05-08 00:47 | 33.57148 | -84.58528 | 6026 ft | 278 kts | 191° |
| 2026-05-08 00:47 | 33.55204 | -84.58564 | 6827 ft | 281 kts | 185° |
| 2026-05-08 00:48 | 33.53260 | -84.58528 | 7495 ft | 285 kts | 186° |
| 2026-05-08 00:48 | 33.51269 | -84.58489 | 8197 ft | 288 kts | 186° |
| 2026-05-08 00:48 | 33.49258 | -84.58392 | 8937 ft | 295 kts | 178° |
| 2026-05-08 00:48 | 33.47326 | -84.57385 | 9576 ft | 318 kts | 146° |
| 2026-05-08 00:49 | 33.45948 | -84.55239 | 10172 ft | 336 kts | 115° |
| 2026-05-08 00:49 | 33.45428 | -84.52449 | 10491 ft | 355 kts | 94° |
| 2026-05-08 00:49 | 33.45353 | -84.49424 | 10741 ft | 372 kts | 89° |
| 2026-05-08 00:49 | 33.45412 | -84.46234 | 10870 ft | 394 kts | 87° |
| 2026-05-08 00:50 | 33.45509 | -84.42893 | 11211 ft | 406 kts | 87° |
| 2026-05-08 00:50 | 33.45588 | -84.39523 | 11843 ft | 415 kts | 88° |
| 2026-05-08 00:50 | 33.45638 | -84.36032 | 12582 ft | 424 kts | 86° |
| 2026-05-08 00:50 | 33.45972 | -84.32507 | 13245 ft | 430 kts | 75° |
| 2026-05-08 00:51 | 33.46755 | -84.29029 | 13826 ft | 439 kts | 69° |
| 2026-05-08 00:51 | 33.47660 | -84.25446 | 13993 ft | 461 kts | 68° |
| 2026-05-08 00:51 | 33.48627 | -84.21681 | 14035 ft | 484 kts | 69° |
| 2026-05-08 00:51 | 33.49632 | -84.17771 | 14024 ft | 496 kts | 69° |
| 2026-05-08 00:52 | 33.50640 | -84.13802 | 14194 ft | 502 kts | 69° |
| 2026-05-08 00:52 | 33.51642 | -84.09805 | 15076 ft | 495 kts | 69° |
| 2026-05-08 00:52 | 33.52606 | -84.05922 | 16447 ft | 477 kts | 70° |
| 2026-05-08 00:52 | 33.53541 | -84.02148 | 17531 ft | 472 kts | 70° |
| 2026-05-08 00:53 | 33.54475 | -83.98422 | 18240 ft | 474 kts | 70° |
| 2026-05-08 00:53 | 33.55436 | -83.94621 | 18735 ft | 478 kts | 70° |
| 2026-05-08 00:53 | 33.56403 | -83.90789 | 19221 ft | 482 kts | 70° |
| 2026-05-08 00:53 | 33.57373 | -83.86928 | 19707 ft | 485 kts | 70° |
| 2026-05-08 00:54 | 33.58376 | -83.83056 | 20201 ft | 487 kts | 66° |
| 2026-05-08 00:54 | 33.59702 | -83.79328 | 20662 ft | 487 kts | 60° |
| 2026-05-08 00:54 | 33.61110 | -83.75617 | 21124 ft | 490 kts | 60° |
| 2026-05-08 00:54 | 33.62528 | -83.71889 | 21568 ft | 493 kts | 60° |
| 2026-05-08 00:55 | 33.63955 | -83.68136 | 21999 ft | 496 kts | 60° |
| 2026-05-08 00:55 | 33.65351 | -83.64333 | 22414 ft | 501 kts | 65° |
| 2026-05-08 00:55 | 33.66415 | -83.60323 | 22797 ft | 507 kts | 70° |
| 2026-05-08 00:55 | 33.67671 | -83.56423 | 22956 ft | 510 kts | 59° |
| 2026-05-08 00:56 | 33.69425 | -83.52703 | 22982 ft | 517 kts | 53° |
| 2026-05-08 00:56 | 33.71304 | -83.48961 | 22975 ft | 529 kts | 53° |
| 2026-05-08 00:56 | 33.73212 | -83.45132 | 22951 ft | 540 kts | 54° |
| 2026-05-08 00:56 | 33.75143 | -83.41209 | 22977 ft | 551 kts | 54° |
| 2026-05-08 00:57 | 33.77094 | -83.37195 | 22987 ft | 561 kts | 54° |
| 2026-05-08 00:57 | 33.79067 | -83.33103 | 22994 ft | 569 kts | 54° |
| 2026-05-08 00:57 | 33.81038 | -83.28991 | 22995 ft | 568 kts | 54° |
| 2026-05-08 00:57 | 33.82340 | -83.26266 | 23000 ft | 568 kts | 54° |
| 2026-05-08 00:58 | 33.84322 | -83.22166 | 23000 ft | 566 kts | 53° |
| 2026-05-08 00:58 | 33.87074 | -83.16861 | 22994 ft | 563 kts | 50° |
| 2026-05-08 00:58 | 33.89240 | -83.12938 | 22985 ft | 562 kts | 49° |
| 2026-05-08 00:58 | 33.91440 | -83.09056 | 22985 ft | 561 kts | 49° |
| 2026-05-08 00:59 | 33.93639 | -83.05179 | 22975 ft | 561 kts | 49° |
| 2026-05-08 00:59 | 33.95116 | -83.02547 | 22964 ft | 561 kts | 50° |
| 2026-05-08 00:59 | 33.97252 | -82.98681 | 22969 ft | 562 kts | 50° |
| 2026-05-08 00:59 | 33.99393 | -82.94734 | 22973 ft | 562 kts | 51° |
| 2026-05-08 01:00 | 34.01512 | -82.90783 | 23028 ft | 562 kts | 50° |
| 2026-05-08 01:00 | 34.03636 | -82.86810 | 23003 ft | 564 kts | 50° |
| 2026-05-08 01:00 | 34.05764 | -82.82832 | 22985 ft | 564 kts | 50° |
| 2026-05-08 01:00 | 34.07896 | -82.78860 | 22976 ft | 565 kts | 50° |
| 2026-05-08 01:01 | 34.10033 | -82.74890 | 22975 ft | 565 kts | 50° |
| 2026-05-08 01:01 | 34.12175 | -82.70918 | 22975 ft | 565 kts | 50° |
| 2026-05-08 01:01 | 34.14316 | -82.66945 | 22968 ft | 565 kts | 50° |
| 2026-05-08 01:01 | 34.16431 | -82.63015 | 22968 ft | 565 kts | 50° |
| 2026-05-08 01:02 | 34.19289 | -82.57695 | 22958 ft | 565 kts | 50° |
| 2026-05-08 01:02 | 34.20705 | -82.55054 | 22951 ft | 565 kts | 50° |
| 2026-05-08 01:02 | 34.22837 | -82.51065 | 22942 ft | 565 kts | 50° |
| 2026-05-08 01:02 | 34.24968 | -82.47068 | 22985 ft | 566 kts | 51° |
| 2026-05-08 01:03 | 34.27101 | -82.43071 | 22975 ft | 566 kts | 51° |
| 2026-05-08 01:03 | 34.29236 | -82.39068 | 22957 ft | 567 kts | 51° |
| 2026-05-08 01:03 | 34.31371 | -82.35064 | 22951 ft | 567 kts | 51° |
| 2026-05-08 01:03 | 34.33506 | -82.31054 | 22951 ft | 567 kts | 51° |
| 2026-05-08 01:04 | 34.35639 | -82.27033 | 22952 ft | 568 kts | 51° |
| 2026-05-08 01:04 | 34.37774 | -82.23004 | 22608 ft | 566 kts | 51° |
| 2026-05-08 01:04 | 34.39864 | -82.19051 | 22346 ft | 564 kts | 51° |
| 2026-05-08 01:04 | 34.41974 | -82.15057 | 21824 ft | 561 kts | 51° |
| 2026-05-08 01:05 | 34.44064 | -82.11100 | 21159 ft | 555 kts | 51° |
| 2026-05-08 01:05 | 34.46129 | -82.07187 | 20517 ft | 548 kts | 51° |
| 2026-05-08 01:05 | 34.48173 | -82.03315 | 19897 ft | 542 kts | 51° |
| 2026-05-08 01:05 | 34.50196 | -81.99479 | 19209 ft | 537 kts | 51° |
| 2026-05-08 01:06 | 34.52191 | -81.95682 | 18596 ft | 530 kts | 51° |
| 2026-05-08 01:06 | 34.54155 | -81.91939 | 18034 ft | 523 kts | 51° |
| 2026-05-08 01:06 | 34.56096 | -81.88242 | 17464 ft | 516 kts | 51° |
| 2026-05-08 01:06 | 34.58013 | -81.84590 | 16925 ft | 510 kts | 52° |
| 2026-05-08 01:07 | 34.59904 | -81.80987 | 16388 ft | 503 kts | 52° |
| 2026-05-08 01:07 | 34.61773 | -81.77422 | 15866 ft | 497 kts | 52° |
| 2026-05-08 01:07 | 34.63592 | -81.73953 | 15344 ft | 491 kts | 52° |
| 2026-05-08 01:07 | 34.65410 | -81.70473 | 14833 ft | 485 kts | 53° |
| 2026-05-08 01:08 | 34.67204 | -81.67031 | 14313 ft | 479 kts | 53° |
| 2026-05-08 01:08 | 34.68973 | -81.63634 | 13806 ft | 472 kts | 53° |
| 2026-05-08 01:08 | 34.70716 | -81.60288 | 13292 ft | 466 kts | 54° |
| 2026-05-08 01:08 | 34.72445 | -81.56969 | 12743 ft | 462 kts | 54° |
| 2026-05-08 01:09 | 34.74156 | -81.53681 | 12585 ft | 460 kts | 54° |
| 2026-05-08 01:09 | 34.75831 | -81.50396 | 12448 ft | 448 kts | 56° |
| 2026-05-08 01:09 | 34.77318 | -81.47202 | 12320 ft | 421 kts | 58° |
| 2026-05-08 01:09 | 34.78379 | -81.43988 | 12199 ft | 400 kts | 73° |
| 2026-05-08 01:10 | 34.79066 | -81.40800 | 12080 ft | 378 kts | 73° |
| 2026-05-08 01:10 | 34.79759 | -81.37801 | 11926 ft | 359 kts | 71° |
| 2026-05-08 01:10 | 34.80448 | -81.34980 | 11360 ft | 349 kts | 71° |
| 2026-05-08 01:10 | 34.81156 | -81.32144 | 10354 ft | 353 kts | 71° |
| 2026-05-08 01:11 | 34.81853 | -81.29375 | 10021 ft | 333 kts | 71° |
| 2026-05-08 01:11 | 34.82551 | -81.26636 | 8691 ft | 345 kts | 71° |
| 2026-05-08 01:11 | 34.83290 | -81.23825 | 7679 ft | 347 kts | 71° |
| 2026-05-08 01:11 | 34.84022 | -81.21118 | 7285 ft | 325 kts | 70° |
| 2026-05-08 01:12 | 34.84683 | -81.18611 | 7115 ft | 297 kts | 71° |
| 2026-05-08 01:12 | 34.85284 | -81.16300 | 6992 ft | 279 kts | 71° |
| 2026-05-08 01:12 | 34.85860 | -81.14059 | 7008 ft | 278 kts | 74° |
| 2026-05-08 01:12 | 34.86234 | -81.11665 | 7006 ft | 299 kts | 81° |
| 2026-05-08 01:13 | 34.86678 | -81.09162 | 6956 ft | 303 kts | 66° |
| 2026-05-08 01:13 | 34.87790 | -81.07035 | 6574 ft | 296 kts | 45° |
| 2026-05-08 01:13 | 34.89197 | -81.05218 | 6212 ft | 294 kts | 43° |
| 2026-05-08 01:13 | 34.90609 | -81.03484 | 5874 ft | 290 kts | 42° |
| 2026-05-08 01:14 | 34.92019 | -81.01756 | 5582 ft | 285 kts | 42° |
| 2026-05-08 01:14 | 34.93399 | -81.00060 | 5316 ft | 279 kts | 41° |
| 2026-05-08 01:14 | 34.94741 | -80.98393 | 5019 ft | 273 kts | 43° |
| 2026-05-08 01:14 | 34.96095 | -80.96817 | 4732 ft | 264 kts | 32° |
| 2026-05-08 01:15 | 34.97663 | -80.95735 | 4379 ft | 256 kts | 22° |
| 2026-05-08 01:15 | 34.99266 | -80.94810 | 4032 ft | 253 kts | 22° |
| 2026-05-08 01:15 | 35.00863 | -80.93927 | 3696 ft | 250 kts | 19° |
| 2026-05-08 01:15 | 35.02538 | -80.93577 | 3376 ft | 244 kts | 357° |
| 2026-05-08 01:16 | 35.04227 | -80.93714 | 3050 ft | 241 kts | 355° |
| 2026-05-08 01:16 | 35.05866 | -80.93866 | 2931 ft | 238 kts | 356° |
| 2026-05-08 01:16 | 35.07526 | -80.94010 | 2938 ft | 241 kts | 356° |
| 2026-05-08 01:16 | 35.09204 | -80.94154 | 2744 ft | 243 kts | 357° |
| 2026-05-08 01:17 | 35.10878 | -80.94298 | 2451 ft | 236 kts | 358° |
| 2026-05-08 01:17 | 35.12424 | -80.94432 | 2173 ft | 211 kts | 358° |
| 2026-05-08 01:17 | 35.13810 | -80.94552 | 1907 ft | 186 kts | 359° |
| 2026-05-08 01:17 | 35.15005 | -80.94656 | 1689 ft | 158 kts | 359° |
| 2026-05-08 01:18 | 35.16054 | -80.94744 | 1524 ft | 149 kts | 359° |
| 2026-05-08 01:18 | 35.17064 | -80.94815 | 1327 ft | 143 kts | 358° |
| 2026-05-08 01:18 | 35.18052 | -80.94917 | 1125 ft | 142 kts | 358° |
| 2026-05-08 01:18 | 35.19042 | -80.95008 | 947 ft | 142 kts | 358° |
| 2026-05-08 01:19 | 35.20032 | -80.95087 | 758 ft | 142 kts | 358° |
| 2026-05-08 01:19 | 35.20938 | -80.95163 | 725 ft | 106 kts | 356° |
| 2026-05-08 01:19 | 35.21411 | -80.95184 | 721 ft | 46 kts | 13° |
| 2026-05-08 01:19 | 35.21596 | -80.95083 | 720 ft | 18 kts | 27° |